sensor_id;sensor_type;location;lat;lon;timestamp;P1;durP1;ratioP1;P2;durP2;ratioP2
4047;SDS011;2038;51.728;6.674;2023-02-22T00:00:32;92.00;;;36.30;;
4047;SDS011;2038;51.728;6.674;2023-02-22T00:03:12;81.87;;;35.27;;
4047;SDS011;2038;51.728;6.674;2023-02-22T00:05:42;100.27;;;40.97;;
4047;SDS011;2038;51.728;6.674;2023-02-22T00:08:14;101.77;;;39.53;;
4047;SDS011;2038;51.728;6.674;2023-02-22T00:10:41;94.50;;;40.80;;
4047;SDS011;2038;51.728;6.674;2023-02-22T00:13:10;88.47;;;37.77;;
4047;SDS011;2038;51.728;6.674;2023-02-22T00:15:38;84.53;;;38.07;;
4047;SDS011;2038;51.728;6.674;2023-02-22T00:18:05;91.13;;;38.80;;
4047;SDS011;2038;51.728;6.674;2023-02-22T00:20:36;85.97;;;38.07;;
4047;SDS011;2038;51.728;6.674;2023-02-22T00:23:07;101.57;;;42.27;;
4047;SDS011;2038;51.728;6.674;2023-02-22T00:25:44;97.43;;;38.57;;
4047;SDS011;2038;51.728;6.674;2023-02-22T00:28:14;98.43;;;40.47;;
4047;SDS011;2038;51.728;6.674;2023-02-22T00:30:43;108.43;;;41.50;;
4047;SDS011;2038;51.728;6.674;2023-02-22T00:33:10;90.50;;;39.70;;
4047;SDS011;2038;51.728;6.674;2023-02-22T00:35:39;100.60;;;40.67;;
4047;SDS011;2038;51.728;6.674;2023-02-22T00:38:09;88.73;;;39.43;;
4047;SDS011;2038;51.728;6.674;2023-02-22T00:40:38;108.70;;;39.80;;
4047;SDS011;2038;51.728;6.674;2023-02-22T00:43:04;99.20;;;40.90;;
4047;SDS011;2038;51.728;6.674;2023-02-22T00:45:32;95.93;;;39.57;;
4047;SDS011;2038;51.728;6.674;2023-02-22T00:48:01;86.73;;;37.07;;
4047;SDS011;2038;51.728;6.674;2023-02-22T00:50:30;111.83;;;41.40;;
4047;SDS011;2038;51.728;6.674;2023-02-22T00:52:58;110.73;;;42.43;;
4047;SDS011;2038;51.728;6.674;2023-02-22T00:55:29;118.80;;;41.77;;
4047;SDS011;2038;51.728;6.674;2023-02-22T00:57:59;115.10;;;42.10;;
4047;SDS011;2038;51.728;6.674;2023-02-22T01:00:33;117.93;;;44.70;;
4047;SDS011;2038;51.728;6.674;2023-02-22T01:03:04;101.00;;;44.67;;
4047;SDS011;2038;51.728;6.674;2023-02-22T01:05:33;96.90;;;38.83;;
4047;SDS011;2038;51.728;6.674;2023-02-22T01:08:00;99.17;;;43.23;;
4047;SDS011;2038;51.728;6.674;2023-02-22T01:10:30;99.07;;;42.67;;
4047;SDS011;2038;51.728;6.674;2023-02-22T01:12:57;106.87;;;43.83;;
4047;SDS011;2038;51.728;6.674;2023-02-22T01:15:26;111.67;;;45.67;;
4047;SDS011;2038;51.728;6.674;2023-02-22T01:17:55;108.97;;;41.87;;
4047;SDS011;2038;51.728;6.674;2023-02-22T01:20:24;117.27;;;46.40;;
4047;SDS011;2038;51.728;6.674;2023-02-22T01:22:52;98.17;;;41.03;;
4047;SDS011;2038;51.728;6.674;2023-02-22T01:25:25;104.00;;;41.57;;
4047;SDS011;2038;51.728;6.674;2023-02-22T01:27:55;105.97;;;42.30;;
4047;SDS011;2038;51.728;6.674;2023-02-22T01:30:26;110.07;;;42.03;;
4047;SDS011;2038;51.728;6.674;2023-02-22T01:33:00;103.87;;;42.57;;
4047;SDS011;2038;51.728;6.674;2023-02-22T01:35:30;97.83;;;43.83;;
4047;SDS011;2038;51.728;6.674;2023-02-22T01:38:00;111.37;;;42.80;;
4047;SDS011;2038;51.728;6.674;2023-02-22T01:40:32;91.60;;;37.53;;
4047;SDS011;2038;51.728;6.674;2023-02-22T01:45:58;111.17;;;43.77;;
4047;SDS011;2038;51.728;6.674;2023-02-22T01:48:53;96.30;;;44.30;;
4047;SDS011;2038;51.728;6.674;2023-02-22T01:51:38;105.60;;;41.87;;
4047;SDS011;2038;51.728;6.674;2023-02-22T01:54:17;104.00;;;39.67;;
4047;SDS011;2038;51.728;6.674;2023-02-22T01:57:03;82.93;;;37.37;;
4047;SDS011;2038;51.728;6.674;2023-02-22T01:59:49;85.30;;;35.90;;
4047;SDS011;2038;51.728;6.674;2023-02-22T02:02:23;96.63;;;39.23;;
4047;SDS011;2038;51.728;6.674;2023-02-22T02:04:52;82.73;;;37.03;;
4047;SDS011;2038;51.728;6.674;2023-02-22T02:07:21;92.27;;;40.83;;
4047;SDS011;2038;51.728;6.674;2023-02-22T02:09:58;93.83;;;38.30;;
4047;SDS011;2038;51.728;6.674;2023-02-22T02:12:38;115.17;;;40.07;;
4047;SDS011;2038;51.728;6.674;2023-02-22T02:17:50;107.73;;;43.17;;
4047;SDS011;2038;51.728;6.674;2023-02-22T02:29:55;104.40;;;41.40;;
4047;SDS011;2038;51.728;6.674;2023-02-22T02:32:38;95.53;;;38.40;;
4047;SDS011;2038;51.728;6.674;2023-02-22T02:38:04;104.00;;;41.07;;
4047;SDS011;2038;51.728;6.674;2023-02-22T02:44:14;88.30;;;38.07;;
4047;SDS011;2038;51.728;6.674;2023-02-22T02:46:58;92.03;;;37.77;;
4047;SDS011;2038;51.728;6.674;2023-02-22T02:49:34;94.33;;;38.13;;
4047;SDS011;2038;51.728;6.674;2023-02-22T02:52:14;99.97;;;40.03;;
4047;SDS011;2038;51.728;6.674;2023-02-22T02:54:45;81.10;;;34.20;;
4047;SDS011;2038;51.728;6.674;2023-02-22T02:57:13;77.53;;;33.60;;
4047;SDS011;2038;51.728;6.674;2023-02-22T02:59:39;76.37;;;36.10;;
4047;SDS011;2038;51.728;6.674;2023-02-22T03:11:18;67.47;;;32.77;;
4047;SDS011;2038;51.728;6.674;2023-02-22T03:13:58;97.00;;;37.33;;
4047;SDS011;2038;51.728;6.674;2023-02-22T03:16:51;69.33;;;31.80;;
4047;SDS011;2038;51.728;6.674;2023-02-22T03:19:39;62.80;;;30.43;;
4047;SDS011;2038;51.728;6.674;2023-02-22T03:22:50;54.77;;;27.17;;
4047;SDS011;2038;51.728;6.674;2023-02-22T03:25:50;64.77;;;29.47;;
4047;SDS011;2038;51.728;6.674;2023-02-22T03:28:28;74.80;;;29.27;;
4047;SDS011;2038;51.728;6.674;2023-02-22T03:31:01;84.07;;;35.27;;
4047;SDS011;2038;51.728;6.674;2023-02-22T03:33:39;110.67;;;40.30;;
4047;SDS011;2038;51.728;6.674;2023-02-22T03:36:41;116.93;;;39.20;;
4047;SDS011;2038;51.728;6.674;2023-02-22T03:39:19;101.43;;;37.97;;
4047;SDS011;2038;51.728;6.674;2023-02-22T03:41:55;85.97;;;33.53;;
4047;SDS011;2038;51.728;6.674;2023-02-22T03:44:32;99.33;;;39.50;;
4047;SDS011;2038;51.728;6.674;2023-02-22T03:47:05;85.93;;;36.87;;
4047;SDS011;2038;51.728;6.674;2023-02-22T03:49:39;99.03;;;36.40;;
4047;SDS011;2038;51.728;6.674;2023-02-22T03:52:18;186.17;;;42.33;;
4047;SDS011;2038;51.728;6.674;2023-02-22T03:54:47;84.43;;;33.87;;
4047;SDS011;2038;51.728;6.674;2023-02-22T03:59:54;72.50;;;29.80;;
4047;SDS011;2038;51.728;6.674;2023-02-22T04:02:20;67.63;;;29.07;;
4047;SDS011;2038;51.728;6.674;2023-02-22T04:04:47;63.00;;;29.63;;
4047;SDS011;2038;51.728;6.674;2023-02-22T04:07:14;66.87;;;30.13;;
4047;SDS011;2038;51.728;6.674;2023-02-22T04:09:41;61.77;;;26.20;;
4047;SDS011;2038;51.728;6.674;2023-02-22T04:12:07;52.43;;;25.23;;
4047;SDS011;2038;51.728;6.674;2023-02-22T04:14:33;52.90;;;23.87;;
4047;SDS011;2038;51.728;6.674;2023-02-22T04:17:00;55.37;;;24.70;;
4047;SDS011;2038;51.728;6.674;2023-02-22T04:19:26;53.73;;;28.50;;
4047;SDS011;2038;51.728;6.674;2023-02-22T04:21:52;40.73;;;22.60;;
4047;SDS011;2038;51.728;6.674;2023-02-22T04:24:18;47.80;;;25.67;;
4047;SDS011;2038;51.728;6.674;2023-02-22T04:26:44;46.37;;;23.13;;
4047;SDS011;2038;51.728;6.674;2023-02-22T04:29:11;59.37;;;27.73;;
4047;SDS011;2038;51.728;6.674;2023-02-22T04:31:37;71.17;;;34.40;;
4047;SDS011;2038;51.728;6.674;2023-02-22T04:34:03;70.07;;;32.60;;
4047;SDS011;2038;51.728;6.674;2023-02-22T04:36:30;68.87;;;33.17;;
4047;SDS011;2038;51.728;6.674;2023-02-22T04:38:57;66.77;;;31.37;;
4047;SDS011;2038;51.728;6.674;2023-02-22T04:41:24;91.00;;;37.50;;
4047;SDS011;2038;51.728;6.674;2023-02-22T04:43:50;96.53;;;40.07;;
4047;SDS011;2038;51.728;6.674;2023-02-22T04:46:17;114.50;;;40.87;;
4047;SDS011;2038;51.728;6.674;2023-02-22T04:48:43;108.53;;;40.17;;
4047;SDS011;2038;51.728;6.674;2023-02-22T04:51:10;102.53;;;42.33;;
4047;SDS011;2038;51.728;6.674;2023-02-22T04:53:37;136.70;;;45.00;;
4047;SDS011;2038;51.728;6.674;2023-02-22T04:56:03;99.93;;;38.73;;
4047;SDS011;2038;51.728;6.674;2023-02-22T04:58:30;125.73;;;44.30;;
4047;SDS011;2038;51.728;6.674;2023-02-22T05:00:56;129.37;;;44.33;;
4047;SDS011;2038;51.728;6.674;2023-02-22T05:03:23;148.07;;;45.17;;
4047;SDS011;2038;51.728;6.674;2023-02-22T05:05:50;121.77;;;41.40;;
4047;SDS011;2038;51.728;6.674;2023-02-22T05:08:16;99.27;;;41.67;;
4047;SDS011;2038;51.728;6.674;2023-02-22T05:10:43;117.33;;;40.17;;
4047;SDS011;2038;51.728;6.674;2023-02-22T05:13:10;95.10;;;38.93;;
4047;SDS011;2038;51.728;6.674;2023-02-22T05:15:36;107.60;;;36.63;;
4047;SDS011;2038;51.728;6.674;2023-02-22T05:18:02;119.47;;;37.70;;
4047;SDS011;2038;51.728;6.674;2023-02-22T05:20:30;129.00;;;33.70;;
4047;SDS011;2038;51.728;6.674;2023-02-22T05:22:59;110.83;;;33.87;;
4047;SDS011;2038;51.728;6.674;2023-02-22T05:25:27;102.17;;;35.07;;
4047;SDS011;2038;51.728;6.674;2023-02-22T05:27:57;96.33;;;31.60;;
4047;SDS011;2038;51.728;6.674;2023-02-22T05:30:31;85.30;;;32.37;;
4047;SDS011;2038;51.728;6.674;2023-02-22T05:33:00;80.87;;;32.40;;
4047;SDS011;2038;51.728;6.674;2023-02-22T05:35:26;77.97;;;31.90;;
4047;SDS011;2038;51.728;6.674;2023-02-22T05:37:53;85.67;;;30.87;;
4047;SDS011;2038;51.728;6.674;2023-02-22T05:40:21;95.50;;;32.77;;
4047;SDS011;2038;51.728;6.674;2023-02-22T05:42:50;88.73;;;31.80;;
4047;SDS011;2038;51.728;6.674;2023-02-22T05:45:18;80.87;;;31.00;;
4047;SDS011;2038;51.728;6.674;2023-02-22T05:47:48;80.13;;;30.57;;
4047;SDS011;2038;51.728;6.674;2023-02-22T05:50:16;92.97;;;34.13;;
4047;SDS011;2038;51.728;6.674;2023-02-22T05:52:43;84.33;;;32.07;;
4047;SDS011;2038;51.728;6.674;2023-02-22T05:55:12;99.00;;;30.10;;
4047;SDS011;2038;51.728;6.674;2023-02-22T05:57:41;98.70;;;32.80;;
4047;SDS011;2038;51.728;6.674;2023-02-22T06:00:07;90.23;;;32.00;;
4047;SDS011;2038;51.728;6.674;2023-02-22T06:02:39;78.33;;;26.93;;
4047;SDS011;2038;51.728;6.674;2023-02-22T06:05:05;96.00;;;32.47;;
4047;SDS011;2038;51.728;6.674;2023-02-22T06:07:32;100.70;;;30.43;;
4047;SDS011;2038;51.728;6.674;2023-02-22T06:09:58;83.10;;;28.57;;
4047;SDS011;2038;51.728;6.674;2023-02-22T06:12:24;94.33;;;30.67;;
4047;SDS011;2038;51.728;6.674;2023-02-22T06:14:51;74.37;;;29.37;;
4047;SDS011;2038;51.728;6.674;2023-02-22T06:17:17;123.10;;;34.07;;
4047;SDS011;2038;51.728;6.674;2023-02-22T06:19:45;98.83;;;30.10;;
4047;SDS011;2038;51.728;6.674;2023-02-22T06:22:15;116.13;;;31.97;;
4047;SDS011;2038;51.728;6.674;2023-02-22T06:24:43;89.73;;;33.40;;
4047;SDS011;2038;51.728;6.674;2023-02-22T06:27:09;80.67;;;30.40;;
4047;SDS011;2038;51.728;6.674;2023-02-22T06:29:36;77.73;;;30.57;;
4047;SDS011;2038;51.728;6.674;2023-02-22T06:32:02;89.90;;;30.40;;
4047;SDS011;2038;51.728;6.674;2023-02-22T06:34:28;88.50;;;32.03;;
4047;SDS011;2038;51.728;6.674;2023-02-22T06:36:55;102.93;;;32.30;;
4047;SDS011;2038;51.728;6.674;2023-02-22T06:39:21;94.80;;;32.40;;
4047;SDS011;2038;51.728;6.674;2023-02-22T06:41:47;97.23;;;31.27;;
4047;SDS011;2038;51.728;6.674;2023-02-22T06:44:15;86.13;;;31.07;;
4047;SDS011;2038;51.728;6.674;2023-02-22T06:46:48;106.83;;;33.20;;
4047;SDS011;2038;51.728;6.674;2023-02-22T06:49:15;90.43;;;33.50;;
4047;SDS011;2038;51.728;6.674;2023-02-22T06:51:43;93.77;;;32.40;;
4047;SDS011;2038;51.728;6.674;2023-02-22T06:54:10;102.30;;;33.13;;
4047;SDS011;2038;51.728;6.674;2023-02-22T06:56:37;81.93;;;30.67;;
4047;SDS011;2038;51.728;6.674;2023-02-22T06:59:04;77.57;;;30.97;;
4047;SDS011;2038;51.728;6.674;2023-02-22T07:01:30;92.50;;;33.23;;
4047;SDS011;2038;51.728;6.674;2023-02-22T07:03:56;77.53;;;31.10;;
4047;SDS011;2038;51.728;6.674;2023-02-22T07:06:22;86.67;;;32.10;;
4047;SDS011;2038;51.728;6.674;2023-02-22T07:08:49;79.27;;;32.43;;
4047;SDS011;2038;51.728;6.674;2023-02-22T07:11:15;94.90;;;32.63;;
4047;SDS011;2038;51.728;6.674;2023-02-22T07:13:42;106.20;;;34.13;;
4047;SDS011;2038;51.728;6.674;2023-02-22T07:16:08;102.70;;;34.60;;
4047;SDS011;2038;51.728;6.674;2023-02-22T07:18:34;79.03;;;30.50;;
4047;SDS011;2038;51.728;6.674;2023-02-22T07:21:01;88.40;;;31.40;;
4047;SDS011;2038;51.728;6.674;2023-02-22T07:23:27;95.60;;;33.50;;
4047;SDS011;2038;51.728;6.674;2023-02-22T07:25:53;85.87;;;33.07;;
4047;SDS011;2038;51.728;6.674;2023-02-22T07:28:19;96.87;;;35.97;;
4047;SDS011;2038;51.728;6.674;2023-02-22T07:30:45;95.13;;;38.10;;
4047;SDS011;2038;51.728;6.674;2023-02-22T07:33:12;99.70;;;36.33;;
4047;SDS011;2038;51.728;6.674;2023-02-22T07:35:42;109.83;;;36.13;;
4047;SDS011;2038;51.728;6.674;2023-02-22T07:38:10;100.13;;;36.83;;
4047;SDS011;2038;51.728;6.674;2023-02-22T07:40:39;99.90;;;38.23;;
4047;SDS011;2038;51.728;6.674;2023-02-22T07:43:14;108.13;;;38.17;;
4047;SDS011;2038;51.728;6.674;2023-02-22T07:45:49;124.03;;;40.53;;
4047;SDS011;2038;51.728;6.674;2023-02-22T07:48:20;128.73;;;43.67;;
4047;SDS011;2038;51.728;6.674;2023-02-22T07:50:50;119.20;;;45.83;;
4047;SDS011;2038;51.728;6.674;2023-02-22T07:55:48;141.67;;;43.13;;
4047;SDS011;2038;51.728;6.674;2023-02-22T07:58:17;141.10;;;45.57;;
4047;SDS011;2038;51.728;6.674;2023-02-22T08:00:47;137.37;;;46.00;;
4047;SDS011;2038;51.728;6.674;2023-02-22T08:03:14;147.77;;;46.93;;
4047;SDS011;2038;51.728;6.674;2023-02-22T08:05:47;115.07;;;42.83;;
4047;SDS011;2038;51.728;6.674;2023-02-22T08:08:16;126.93;;;43.53;;
4047;SDS011;2038;51.728;6.674;2023-02-22T08:10:43;123.97;;;41.20;;
4047;SDS011;2038;51.728;6.674;2023-02-22T08:13:11;126.73;;;43.37;;
4047;SDS011;2038;51.728;6.674;2023-02-22T08:15:38;124.10;;;47.33;;
4047;SDS011;2038;51.728;6.674;2023-02-22T08:18:13;126.13;;;43.67;;
4047;SDS011;2038;51.728;6.674;2023-02-22T08:20:42;120.87;;;44.67;;
4047;SDS011;2038;51.728;6.674;2023-02-22T08:23:12;124.97;;;41.67;;
4047;SDS011;2038;51.728;6.674;2023-02-22T08:25:41;119.97;;;43.90;;
4047;SDS011;2038;51.728;6.674;2023-02-22T08:28:08;128.27;;;44.13;;
4047;SDS011;2038;51.728;6.674;2023-02-22T08:30:39;127.53;;;47.97;;
4047;SDS011;2038;51.728;6.674;2023-02-22T08:33:07;113.40;;;43.80;;
4047;SDS011;2038;51.728;6.674;2023-02-22T08:35:38;123.17;;;43.20;;
4047;SDS011;2038;51.728;6.674;2023-02-22T08:38:13;115.57;;;44.47;;
4047;SDS011;2038;51.728;6.674;2023-02-22T08:40:48;117.80;;;43.40;;
4047;SDS011;2038;51.728;6.674;2023-02-22T08:43:15;98.03;;;39.33;;
4047;SDS011;2038;51.728;6.674;2023-02-22T08:45:43;95.20;;;39.73;;
4047;SDS011;2038;51.728;6.674;2023-02-22T08:48:11;93.43;;;37.90;;
4047;SDS011;2038;51.728;6.674;2023-02-22T08:50:39;80.90;;;36.27;;
4047;SDS011;2038;51.728;6.674;2023-02-22T08:53:08;59.17;;;31.00;;
4047;SDS011;2038;51.728;6.674;2023-02-22T08:55:37;69.60;;;33.10;;
4047;SDS011;2038;51.728;6.674;2023-02-22T08:58:06;66.63;;;31.97;;
4047;SDS011;2038;51.728;6.674;2023-02-22T09:00:36;64.80;;;32.13;;
4047;SDS011;2038;51.728;6.674;2023-02-22T09:03:06;58.60;;;31.77;;
4047;SDS011;2038;51.728;6.674;2023-02-22T09:05:37;60.40;;;30.10;;
4047;SDS011;2038;51.728;6.674;2023-02-22T09:08:03;47.87;;;27.50;;
4047;SDS011;2038;51.728;6.674;2023-02-22T09:10:31;62.37;;;31.70;;
4047;SDS011;2038;51.728;6.674;2023-02-22T09:12:58;83.50;;;36.00;;
4047;SDS011;2038;51.728;6.674;2023-02-22T09:15:26;72.70;;;33.40;;
4047;SDS011;2038;51.728;6.674;2023-02-22T09:17:53;62.57;;;29.10;;
4047;SDS011;2038;51.728;6.674;2023-02-22T09:20:20;52.80;;;26.53;;
4047;SDS011;2038;51.728;6.674;2023-02-22T09:22:49;50.33;;;27.90;;
4047;SDS011;2038;51.728;6.674;2023-02-22T09:25:16;50.50;;;28.00;;
4047;SDS011;2038;51.728;6.674;2023-02-22T09:27:48;59.93;;;28.80;;
4047;SDS011;2038;51.728;6.674;2023-02-22T09:30:25;56.00;;;28.20;;
4047;SDS011;2038;51.728;6.674;2023-02-22T09:32:56;47.73;;;26.93;;
4047;SDS011;2038;51.728;6.674;2023-02-22T09:35:29;48.87;;;26.37;;
4047;SDS011;2038;51.728;6.674;2023-02-22T09:37:59;43.47;;;26.93;;
4047;SDS011;2038;51.728;6.674;2023-02-22T09:40:29;50.30;;;26.93;;
4047;SDS011;2038;51.728;6.674;2023-02-22T09:43:03;50.27;;;28.23;;
4047;SDS011;2038;51.728;6.674;2023-02-22T09:46:02;43.23;;;26.40;;
4047;SDS011;2038;51.728;6.674;2023-02-22T09:48:53;51.83;;;28.60;;
4047;SDS011;2038;51.728;6.674;2023-02-22T09:51:47;52.30;;;29.43;;
4047;SDS011;2038;51.728;6.674;2023-02-22T09:54:28;55.20;;;32.63;;
4047;SDS011;2038;51.728;6.674;2023-02-22T09:57:25;64.63;;;36.47;;
4047;SDS011;2038;51.728;6.674;2023-02-22T10:00:00;70.87;;;37.27;;
4047;SDS011;2038;51.728;6.674;2023-02-22T10:03:24;43.77;;;26.23;;
4047;SDS011;2038;51.728;6.674;2023-02-22T10:05:59;47.27;;;26.90;;
4047;SDS011;2038;51.728;6.674;2023-02-22T10:08:41;75.00;;;36.83;;
4047;SDS011;2038;51.728;6.674;2023-02-22T10:11:18;54.97;;;28.80;;
4047;SDS011;2038;51.728;6.674;2023-02-22T10:23:24;40.10;;;24.30;;
4047;SDS011;2038;51.728;6.674;2023-02-22T10:26:19;41.23;;;22.07;;
4047;SDS011;2038;51.728;6.674;2023-02-22T10:29:03;41.33;;;25.27;;
4047;SDS011;2038;51.728;6.674;2023-02-22T10:31:49;41.07;;;23.93;;
4047;SDS011;2038;51.728;6.674;2023-02-22T10:34:23;39.33;;;25.70;;
4047;SDS011;2038;51.728;6.674;2023-02-22T10:36:56;37.27;;;23.13;;
4047;SDS011;2038;51.728;6.674;2023-02-22T10:39:52;42.40;;;23.40;;
4047;SDS011;2038;51.728;6.674;2023-02-22T10:42:30;36.00;;;22.80;;
4047;SDS011;2038;51.728;6.674;2023-02-22T10:44:56;37.27;;;24.33;;
4047;SDS011;2038;51.728;6.674;2023-02-22T10:47:22;37.17;;;22.87;;
4047;SDS011;2038;51.728;6.674;2023-02-22T10:49:50;36.83;;;22.23;;
4047;SDS011;2038;51.728;6.674;2023-02-22T10:52:32;29.73;;;20.50;;
4047;SDS011;2038;51.728;6.674;2023-02-22T10:54:59;32.10;;;20.43;;
4047;SDS011;2038;51.728;6.674;2023-02-22T10:57:31;40.90;;;24.13;;
4047;SDS011;2038;51.728;6.674;2023-02-22T11:02:53;37.83;;;21.97;;
4047;SDS011;2038;51.728;6.674;2023-02-22T11:08:13;44.93;;;22.13;;
4047;SDS011;2038;51.728;6.674;2023-02-22T11:10:49;36.33;;;22.87;;
4047;SDS011;2038;51.728;6.674;2023-02-22T11:13:30;36.97;;;23.03;;
4047;SDS011;2038;51.728;6.674;2023-02-22T11:16:18;37.90;;;23.53;;
4047;SDS011;2038;51.728;6.674;2023-02-22T11:19:00;34.00;;;22.57;;
4047;SDS011;2038;51.728;6.674;2023-02-22T11:22:08;35.60;;;21.63;;
4047;SDS011;2038;51.728;6.674;2023-02-22T11:24:44;38.97;;;22.17;;
4047;SDS011;2038;51.728;6.674;2023-02-22T11:32:52;40.47;;;23.13;;
4047;SDS011;2038;51.728;6.674;2023-02-22T11:37:53;35.00;;;22.23;;
4047;SDS011;2038;51.728;6.674;2023-02-22T11:40:43;36.07;;;21.00;;
4047;SDS011;2038;51.728;6.674;2023-02-22T11:43:13;37.00;;;20.80;;
4047;SDS011;2038;51.728;6.674;2023-02-22T11:46:05;35.80;;;20.83;;
4047;SDS011;2038;51.728;6.674;2023-02-22T11:48:59;35.40;;;24.30;;
4047;SDS011;2038;51.728;6.674;2023-02-22T12:02:57;34.03;;;23.57;;
4047;SDS011;2038;51.728;6.674;2023-02-22T12:14:33;36.97;;;23.83;;
4047;SDS011;2038;51.728;6.674;2023-02-22T12:17:17;46.60;;;29.00;;
4047;SDS011;2038;51.728;6.674;2023-02-22T12:23:01;47.57;;;27.17;;
4047;SDS011;2038;51.728;6.674;2023-02-22T12:29:05;29.97;;;21.93;;
4047;SDS011;2038;51.728;6.674;2023-02-22T12:34:34;33.13;;;20.13;;
4047;SDS011;2038;51.728;6.674;2023-02-22T12:42:46;30.43;;;20.80;;
4047;SDS011;2038;51.728;6.674;2023-02-22T12:45:35;28.63;;;18.77;;
4047;SDS011;2038;51.728;6.674;2023-02-22T12:51:01;25.07;;;15.67;;
4047;SDS011;2038;51.728;6.674;2023-02-22T12:53:55;24.50;;;14.53;;
4047;SDS011;2038;51.728;6.674;2023-02-22T12:56:54;23.63;;;14.80;;
4047;SDS011;2038;51.728;6.674;2023-02-22T12:59:53;27.33;;;16.07;;
4047;SDS011;2038;51.728;6.674;2023-02-22T13:02:55;28.33;;;15.17;;
4047;SDS011;2038;51.728;6.674;2023-02-22T13:05:48;25.93;;;14.87;;
4047;SDS011;2038;51.728;6.674;2023-02-22T13:08:36;22.10;;;14.60;;
4047;SDS011;2038;51.728;6.674;2023-02-22T13:14:34;22.83;;;14.70;;
4047;SDS011;2038;51.728;6.674;2023-02-22T13:17:10;27.30;;;15.87;;
4047;SDS011;2038;51.728;6.674;2023-02-22T13:22:42;26.43;;;16.13;;
4047;SDS011;2038;51.728;6.674;2023-02-22T13:28:21;27.87;;;14.60;;
4047;SDS011;2038;51.728;6.674;2023-02-22T13:34:05;23.43;;;14.73;;
4047;SDS011;2038;51.728;6.674;2023-02-22T13:45:55;25.93;;;15.40;;
4047;SDS011;2038;51.728;6.674;2023-02-22T13:51:12;23.00;;;14.83;;
4047;SDS011;2038;51.728;6.674;2023-02-22T13:54:00;21.23;;;14.37;;
4047;SDS011;2038;51.728;6.674;2023-02-22T13:56:44;24.20;;;15.87;;
4047;SDS011;2038;51.728;6.674;2023-02-22T13:59:25;29.90;;;15.40;;
4047;SDS011;2038;51.728;6.674;2023-02-22T14:01:56;25.73;;;16.50;;
4047;SDS011;2038;51.728;6.674;2023-02-22T14:18:20;22.47;;;14.40;;
4047;SDS011;2038;51.728;6.674;2023-02-22T14:20:34;21.90;;;16.20;;
4047;SDS011;2038;51.728;6.674;2023-02-22T14:23:24;33.47;;;16.00;;
4047;SDS011;2038;51.728;6.674;2023-02-22T14:25:53;23.90;;;15.77;;
4047;SDS011;2038;51.728;6.674;2023-02-22T14:31:16;27.90;;;15.17;;
4047;SDS011;2038;51.728;6.674;2023-02-22T14:39:19;23.43;;;15.90;;
4047;SDS011;2038;51.728;6.674;2023-02-22T14:42:10;20.63;;;13.77;;
4047;SDS011;2038;51.728;6.674;2023-02-22T14:51:04;22.50;;;15.40;;
4047;SDS011;2038;51.728;6.674;2023-02-22T14:53:45;25.23;;;15.63;;
4047;SDS011;2038;51.728;6.674;2023-02-22T14:56:16;24.10;;;14.70;;
4047;SDS011;2038;51.728;6.674;2023-02-22T14:58:57;24.33;;;14.70;;
4047;SDS011;2038;51.728;6.674;2023-02-22T15:01:47;21.13;;;14.50;;
4047;SDS011;2038;51.728;6.674;2023-02-22T15:04:28;23.03;;;13.60;;
4047;SDS011;2038;51.728;6.674;2023-02-22T15:06:56;29.40;;;15.33;;
4047;SDS011;2038;51.728;6.674;2023-02-22T15:09:31;26.37;;;15.63;;
4047;SDS011;2038;51.728;6.674;2023-02-22T15:14:27;23.83;;;15.77;;
4047;SDS011;2038;51.728;6.674;2023-02-22T15:17:02;30.10;;;15.43;;
4047;SDS011;2038;51.728;6.674;2023-02-22T15:19:49;22.90;;;14.70;;
4047;SDS011;2038;51.728;6.674;2023-02-22T15:22:18;22.83;;;15.27;;
4047;SDS011;2038;51.728;6.674;2023-02-22T15:24:56;23.73;;;14.80;;
4047;SDS011;2038;51.728;6.674;2023-02-22T15:27:32;20.77;;;14.20;;
4047;SDS011;2038;51.728;6.674;2023-02-22T15:30:05;21.10;;;15.70;;
4047;SDS011;2038;51.728;6.674;2023-02-22T15:32:54;26.60;;;16.80;;
4047;SDS011;2038;51.728;6.674;2023-02-22T15:37:58;28.27;;;16.30;;
4047;SDS011;2038;51.728;6.674;2023-02-22T15:40:31;21.63;;;15.70;;
4047;SDS011;2038;51.728;6.674;2023-02-22T15:43:05;24.03;;;16.60;;
4047;SDS011;2038;51.728;6.674;2023-02-22T15:45:39;27.40;;;16.07;;
4047;SDS011;2038;51.728;6.674;2023-02-22T15:48:07;25.60;;;16.23;;
4047;SDS011;2038;51.728;6.674;2023-02-22T15:50:35;28.13;;;17.00;;
4047;SDS011;2038;51.728;6.674;2023-02-22T15:55:58;28.20;;;16.87;;
4047;SDS011;2038;51.728;6.674;2023-02-22T15:58:37;28.37;;;15.63;;
4047;SDS011;2038;51.728;6.674;2023-02-22T16:01:05;21.90;;;16.00;;
4047;SDS011;2038;51.728;6.674;2023-02-22T16:09:10;26.13;;;15.50;;
4047;SDS011;2038;51.728;6.674;2023-02-22T16:12:07;24.33;;;16.50;;
4047;SDS011;2038;51.728;6.674;2023-02-22T16:14:51;24.47;;;16.67;;
4047;SDS011;2038;51.728;6.674;2023-02-22T16:22:39;27.77;;;17.37;;
4047;SDS011;2038;51.728;6.674;2023-02-22T16:27:54;26.07;;;17.87;;
4047;SDS011;2038;51.728;6.674;2023-02-22T16:33:04;25.33;;;18.00;;
4047;SDS011;2038;51.728;6.674;2023-02-22T16:35:38;28.77;;;17.73;;
4047;SDS011;2038;51.728;6.674;2023-02-22T16:38:06;25.60;;;17.73;;
4047;SDS011;2038;51.728;6.674;2023-02-22T16:40:41;32.40;;;18.40;;
4047;SDS011;2038;51.728;6.674;2023-02-22T16:43:27;27.43;;;18.33;;
4047;SDS011;2038;51.728;6.674;2023-02-22T16:45:57;30.83;;;20.13;;
4047;SDS011;2038;51.728;6.674;2023-02-22T16:48:26;26.43;;;19.47;;
4047;SDS011;2038;51.728;6.674;2023-02-22T16:51:00;29.43;;;20.67;;
4047;SDS011;2038;51.728;6.674;2023-02-22T16:53:39;29.80;;;18.17;;
4047;SDS011;2038;51.728;6.674;2023-02-22T16:56:07;25.83;;;19.50;;
4047;SDS011;2038;51.728;6.674;2023-02-22T16:58:38;28.03;;;20.10;;
4047;SDS011;2038;51.728;6.674;2023-02-22T17:01:07;31.13;;;18.70;;
4047;SDS011;2038;51.728;6.674;2023-02-22T17:03:34;27.00;;;20.30;;
4047;SDS011;2038;51.728;6.674;2023-02-22T17:06:00;25.17;;;18.23;;
4047;SDS011;2038;51.728;6.674;2023-02-22T17:08:26;29.20;;;20.20;;
4047;SDS011;2038;51.728;6.674;2023-02-22T17:10:53;30.30;;;20.03;;
4047;SDS011;2038;51.728;6.674;2023-02-22T17:13:22;22.43;;;18.00;;
4047;SDS011;2038;51.728;6.674;2023-02-22T17:15:50;28.00;;;19.03;;
4047;SDS011;2038;51.728;6.674;2023-02-22T17:18:19;30.13;;;19.80;;
4047;SDS011;2038;51.728;6.674;2023-02-22T17:20:48;27.50;;;19.43;;
4047;SDS011;2038;51.728;6.674;2023-02-22T17:23:18;29.23;;;18.63;;
4047;SDS011;2038;51.728;6.674;2023-02-22T17:25:51;27.60;;;19.57;;
4047;SDS011;2038;51.728;6.674;2023-02-22T17:28:29;30.13;;;21.70;;
4047;SDS011;2038;51.728;6.674;2023-02-22T17:30:56;27.77;;;20.20;;
4047;SDS011;2038;51.728;6.674;2023-02-22T17:33:28;32.60;;;21.43;;
4047;SDS011;2038;51.728;6.674;2023-02-22T17:35:58;31.87;;;22.27;;
4047;SDS011;2038;51.728;6.674;2023-02-22T17:38:26;34.50;;;23.30;;
4047;SDS011;2038;51.728;6.674;2023-02-22T17:40:54;39.47;;;25.60;;
4047;SDS011;2038;51.728;6.674;2023-02-22T17:43:23;37.13;;;28.07;;
4047;SDS011;2038;51.728;6.674;2023-02-22T17:45:51;39.30;;;29.00;;
4047;SDS011;2038;51.728;6.674;2023-02-22T17:48:18;45.53;;;29.73;;
4047;SDS011;2038;51.728;6.674;2023-02-22T17:50:45;51.10;;;33.80;;
4047;SDS011;2038;51.728;6.674;2023-02-22T17:53:13;51.67;;;36.57;;
4047;SDS011;2038;51.728;6.674;2023-02-22T17:55:42;50.97;;;34.67;;
4047;SDS011;2038;51.728;6.674;2023-02-22T17:58:09;52.17;;;34.43;;
4047;SDS011;2038;51.728;6.674;2023-02-22T18:00:39;52.90;;;34.13;;
4047;SDS011;2038;51.728;6.674;2023-02-22T18:03:10;53.67;;;36.77;;
4047;SDS011;2038;51.728;6.674;2023-02-22T18:05:45;51.00;;;36.43;;
4047;SDS011;2038;51.728;6.674;2023-02-22T18:08:15;55.63;;;37.13;;
4047;SDS011;2038;51.728;6.674;2023-02-22T18:10:41;50.50;;;35.67;;
4047;SDS011;2038;51.728;6.674;2023-02-22T18:13:13;52.83;;;34.17;;